Jacksonville International Airport
KJAX : now visible

Airfield :











YOU CAN JOIN US ON...

 
LOGIN :

Register | Disclaimer

   EN    FR    IT 

 









Legend :    VFR   Marginal VFR   IFR   Intensive IFR   Very Intensive IFR
Visi :
Ceiling :
>= 8 km
>= 3000ft
5 to 8 km
1000 to 3000 ft
1500m to 5 km
500 to 1000 ft
800 to 1500m
200 to 500 ft
< 800m
< 200 ft
Symbols :   Thunderstorms  Fog  Heavy snow  Heavy precipitations  Wind > 20 kt






- Airport Elevation : 30 ft
- IATA code : JAX


KJAX - Jacksonville International

CURRENT METAR :
  • 072056Z VRB04KT 10SM FEW050 BKN150 BKN250 29/14 A2999 RMK AO2 SLP155 T02890144 56024

EXPIRED METARs :
  • 071956Z VRB04KT 10SM SCT050 BKN150 BKN250 29/16 A3000 RMK AO2 SLP158 T02890156
  • 071856Z 22004KT 10SM FEW050 BKN160 BKN250 29/16 A3004 RMK AO2 SLP171 T02890156

TAF KJAX
Valid from the 07 at 18:00 until the 08 at 18:00 UTC


071720Z 0718/0818 23006KT P6SM BKN150 BKN250
FM071900 15008KT P6SM SCT050 BKN150 BKN250
FM080300 23005KT P6SM BKN050 BKN100 OVC200
FM081300 26010KT P6SM BKN035 OVC100



MET'MAP, your aeronautical weather chart ! - Copyright ORBIFLY December 2007 - Disclaimer

ORBIFLY MET'MAP TEAM :

Programming & Development : Alexandra Zaïnal
Concept & original design : Baudouin d'Aumeries
Assistance for programming : Marc-Olivier Méhu
Technical & hardware support : Manuel Goepfert

Contact : metmap@orbifly.com




SOURCES & CREDITS :

   NOAA       Earth
Advisory